sensor_id;sensor_type;location;lat;lon;timestamp;temperature;humidity
39875;DHT22;25547;52.530;13.194;2022-11-12T00:01:52;8.60;99.90
39875;DHT22;25547;52.530;13.194;2022-11-12T00:04:18;8.40;99.90
39875;DHT22;25547;52.530;13.194;2022-11-12T00:06:43;8.50;99.90
39875;DHT22;25547;52.530;13.194;2022-11-12T00:09:08;8.40;99.90
39875;DHT22;25547;52.530;13.194;2022-11-12T00:11:34;8.40;99.90
39875;DHT22;25547;52.530;13.194;2022-11-12T00:13:59;8.40;99.90
39875;DHT22;25547;52.530;13.194;2022-11-12T00:16:27;8.40;99.90
39875;DHT22;25547;52.530;13.194;2022-11-12T00:18:55;8.50;99.90
39875;DHT22;25547;52.530;13.194;2022-11-12T00:21:21;8.50;99.90
39875;DHT22;25547;52.530;13.194;2022-11-12T00:23:46;8.50;99.90
39875;DHT22;25547;52.530;13.194;2022-11-12T00:26:14;8.50;99.90
39875;DHT22;25547;52.530;13.194;2022-11-12T00:28:40;8.50;99.90
39875;DHT22;25547;52.530;13.194;2022-11-12T00:31:06;8.50;99.90
39875;DHT22;25547;52.530;13.194;2022-11-12T00:33:37;8.50;99.90
39875;DHT22;25547;52.530;13.194;2022-11-12T00:36:05;8.50;99.90
39875;DHT22;25547;52.530;13.194;2022-11-12T00:38:30;8.50;99.90
39875;DHT22;25547;52.530;13.194;2022-11-12T00:40:58;8.40;99.90
39875;DHT22;25547;52.530;13.194;2022-11-12T00:43:26;8.40;99.90
39875;DHT22;25547;52.530;13.194;2022-11-12T00:45:54;8.30;99.90
39875;DHT22;25547;52.530;13.194;2022-11-12T00:48:20;8.30;99.90
39875;DHT22;25547;52.530;13.194;2022-11-12T00:50:45;8.20;99.90
39875;DHT22;25547;52.530;13.194;2022-11-12T00:53:13;8.20;99.90
39875;DHT22;25547;52.530;13.194;2022-11-12T00:55:39;8.20;99.90
39875;DHT22;25547;52.530;13.194;2022-11-12T00:58:04;8.20;99.90
39875;DHT22;25547;52.530;13.194;2022-11-12T01:00:30;8.20;99.90
39875;DHT22;25547;52.530;13.194;2022-11-12T01:02:55;8.20;99.90
39875;DHT22;25547;52.530;13.194;2022-11-12T01:05:21;8.20;99.90
39875;DHT22;25547;52.530;13.194;2022-11-12T01:07:46;8.30;99.90
39875;DHT22;25547;52.530;13.194;2022-11-12T01:10:12;8.30;99.90
39875;DHT22;25547;52.530;13.194;2022-11-12T01:12:40;8.30;99.90
39875;DHT22;25547;52.530;13.194;2022-11-12T01:15:06;8.20;99.90
39875;DHT22;25547;52.530;13.194;2022-11-12T01:17:32;8.20;99.90
39875;DHT22;25547;52.530;13.194;2022-11-12T01:20:00;8.20;99.90
39875;DHT22;25547;52.530;13.194;2022-11-12T01:22:25;8.20;99.90
39875;DHT22;25547;52.530;13.194;2022-11-12T01:24:51;8.20;99.90
39875;DHT22;25547;52.530;13.194;2022-11-12T01:27:16;8.20;99.90
39875;DHT22;25547;52.530;13.194;2022-11-12T01:29:42;8.00;99.90
39875;DHT22;25547;52.530;13.194;2022-11-12T01:32:07;8.10;99.90
39875;DHT22;25547;52.530;13.194;2022-11-12T01:34:33;8.00;99.90
39875;DHT22;25547;52.530;13.194;2022-11-12T01:36:58;8.10;99.90
39875;DHT22;25547;52.530;13.194;2022-11-12T01:39:24;8.00;99.90
39875;DHT22;25547;52.530;13.194;2022-11-12T01:41:49;8.00;99.90
39875;DHT22;25547;52.530;13.194;2022-11-12T01:44:22;8.00;99.90
39875;DHT22;25547;52.530;13.194;2022-11-12T01:49:18;7.90;99.90
39875;DHT22;25547;52.530;13.194;2022-11-12T01:51:45;7.80;99.90
39875;DHT22;25547;52.530;13.194;2022-11-12T01:54:12;7.80;99.90
39875;DHT22;25547;52.530;13.194;2022-11-12T01:56:39;7.80;99.90
39875;DHT22;25547;52.530;13.194;2022-11-12T02:02:03;7.80;99.90
39875;DHT22;25547;52.530;13.194;2022-11-12T02:04:29;7.70;99.90
39875;DHT22;25547;52.530;13.194;2022-11-12T02:06:59;7.60;99.90
39875;DHT22;25547;52.530;13.194;2022-11-12T02:09:25;7.50;99.90
39875;DHT22;25547;52.530;13.194;2022-11-12T02:11:51;7.50;99.90
39875;DHT22;25547;52.530;13.194;2022-11-12T02:14:16;7.40;99.90
39875;DHT22;25547;52.530;13.194;2022-11-12T02:16:42;7.50;99.90
39875;DHT22;25547;52.530;13.194;2022-11-12T02:19:10;7.30;99.90
39875;DHT22;25547;52.530;13.194;2022-11-12T02:21:36;7.40;99.90
39875;DHT22;25547;52.530;13.194;2022-11-12T02:24:05;7.30;99.90
39875;DHT22;25547;52.530;13.194;2022-11-12T02:26:32;7.30;99.90
39875;DHT22;25547;52.530;13.194;2022-11-12T02:28:58;7.30;99.90
39875;DHT22;25547;52.530;13.194;2022-11-12T02:31:24;7.30;99.90
39875;DHT22;25547;52.530;13.194;2022-11-12T02:33:49;7.20;99.90
39875;DHT22;25547;52.530;13.194;2022-11-12T02:36:15;7.30;99.90
39875;DHT22;25547;52.530;13.194;2022-11-12T02:38:40;7.30;99.90
39875;DHT22;25547;52.530;13.194;2022-11-12T02:41:09;7.20;99.90
39875;DHT22;25547;52.530;13.194;2022-11-12T02:43:34;7.10;99.90
39875;DHT22;25547;52.530;13.194;2022-11-12T02:46:00;7.10;99.90
39875;DHT22;25547;52.530;13.194;2022-11-12T02:48:25;7.10;99.90
39875;DHT22;25547;52.530;13.194;2022-11-12T02:50:53;7.00;99.90
39875;DHT22;25547;52.530;13.194;2022-11-12T02:53:18;7.00;99.90
39875;DHT22;25547;52.530;13.194;2022-11-12T02:55:44;7.00;99.90
39875;DHT22;25547;52.530;13.194;2022-11-12T02:58:12;7.10;99.90
39875;DHT22;25547;52.530;13.194;2022-11-12T03:00:37;7.10;99.90
39875;DHT22;25547;52.530;13.194;2022-11-12T03:03:03;7.10;99.90
39875;DHT22;25547;52.530;13.194;2022-11-12T03:05:29;7.00;99.90
39875;DHT22;25547;52.530;13.194;2022-11-12T03:07:59;7.10;99.90
39875;DHT22;25547;52.530;13.194;2022-11-12T03:10:25;7.10;99.90
39875;DHT22;25547;52.530;13.194;2022-11-12T03:12:51;7.10;99.90
39875;DHT22;25547;52.530;13.194;2022-11-12T03:15:19;7.10;99.90
39875;DHT22;25547;52.530;13.194;2022-11-12T03:17:45;7.10;99.90
39875;DHT22;25547;52.530;13.194;2022-11-12T03:20:10;7.20;99.90
39875;DHT22;25547;52.530;13.194;2022-11-12T03:22:36;7.20;99.90
39875;DHT22;25547;52.530;13.194;2022-11-12T03:25:03;7.30;99.90
39875;DHT22;25547;52.530;13.194;2022-11-12T03:27:29;7.30;99.90
39875;DHT22;25547;52.530;13.194;2022-11-12T03:29:57;7.40;99.90
39875;DHT22;25547;52.530;13.194;2022-11-12T03:32:25;7.40;99.90
39875;DHT22;25547;52.530;13.194;2022-11-12T03:34:51;7.30;99.90
39875;DHT22;25547;52.530;13.194;2022-11-12T03:37:16;7.20;99.90
39875;DHT22;25547;52.530;13.194;2022-11-12T03:39:42;7.20;99.90
39875;DHT22;25547;52.530;13.194;2022-11-12T03:42:10;7.20;99.90
39875;DHT22;25547;52.530;13.194;2022-11-12T03:44:35;7.20;99.90
39875;DHT22;25547;52.530;13.194;2022-11-12T03:47:01;7.30;99.90
39875;DHT22;25547;52.530;13.194;2022-11-12T03:49:26;7.20;99.90
39875;DHT22;25547;52.530;13.194;2022-11-12T03:51:56;7.20;99.90
39875;DHT22;25547;52.530;13.194;2022-11-12T03:54:22;7.30;99.90
39875;DHT22;25547;52.530;13.194;2022-11-12T03:56:47;7.30;99.90
39875;DHT22;25547;52.530;13.194;2022-11-12T03:59:13;7.20;99.90
39875;DHT22;25547;52.530;13.194;2022-11-12T04:01:38;7.20;99.90
39875;DHT22;25547;52.530;13.194;2022-11-12T04:04:04;7.10;99.90
39875;DHT22;25547;52.530;13.194;2022-11-12T04:06:29;7.00;99.90
39875;DHT22;25547;52.530;13.194;2022-11-12T04:09:13;7.10;99.90
39875;DHT22;25547;52.530;13.194;2022-11-12T04:11:38;7.10;99.90
39875;DHT22;25547;52.530;13.194;2022-11-12T04:14:04;7.10;99.90
39875;DHT22;25547;52.530;13.194;2022-11-12T04:16:32;7.10;99.90
39875;DHT22;25547;52.530;13.194;2022-11-12T04:19:23;7.10;99.90
39875;DHT22;25547;52.530;13.194;2022-11-12T04:22:08;7.10;99.90
39875;DHT22;25547;52.530;13.194;2022-11-12T04:24:39;7.10;99.90
39875;DHT22;25547;52.530;13.194;2022-11-12T04:27:25;7.10;99.90
39875;DHT22;25547;52.530;13.194;2022-11-12T04:29:53;7.10;99.90
39875;DHT22;25547;52.530;13.194;2022-11-12T04:32:47;7.10;99.90
39875;DHT22;25547;52.530;13.194;2022-11-12T04:35:19;7.10;99.90
39875;DHT22;25547;52.530;13.194;2022-11-12T04:37:45;7.10;99.90
39875;DHT22;25547;52.530;13.194;2022-11-12T04:40:45;7.10;99.90
39875;DHT22;25547;52.530;13.194;2022-11-12T04:43:22;7.10;99.90
39875;DHT22;25547;52.530;13.194;2022-11-12T04:46:06;7.00;99.90
39875;DHT22;25547;52.530;13.194;2022-11-12T04:48:32;7.00;99.90
39875;DHT22;25547;52.530;13.194;2022-11-12T04:50:58;7.00;99.90
39875;DHT22;25547;52.530;13.194;2022-11-12T04:53:52;6.90;99.90
39875;DHT22;25547;52.530;13.194;2022-11-12T04:56:18;6.80;99.90
39875;DHT22;25547;52.530;13.194;2022-11-12T04:58:43;6.90;99.90
39875;DHT22;25547;52.530;13.194;2022-11-12T05:01:09;6.90;99.90
39875;DHT22;25547;52.530;13.194;2022-11-12T05:03:37;6.90;99.90
39875;DHT22;25547;52.530;13.194;2022-11-12T05:06:05;6.90;99.90
39875;DHT22;25547;52.530;13.194;2022-11-12T05:08:53;6.80;99.90
39875;DHT22;25547;52.530;13.194;2022-11-12T05:11:19;6.80;99.90
39875;DHT22;25547;52.530;13.194;2022-11-12T05:13:45;6.80;99.90
39875;DHT22;25547;52.530;13.194;2022-11-12T05:16:10;6.80;99.90
39875;DHT22;25547;52.530;13.194;2022-11-12T05:18:35;6.70;99.90
39875;DHT22;25547;52.530;13.194;2022-11-12T05:21:01;6.70;99.90
39875;DHT22;25547;52.530;13.194;2022-11-12T05:23:47;6.70;99.90
39875;DHT22;25547;52.530;13.194;2022-11-12T05:26:15;6.70;99.90
39875;DHT22;25547;52.530;13.194;2022-11-12T05:28:40;6.70;99.90
39875;DHT22;25547;52.530;13.194;2022-11-12T05:31:06;6.70;99.90
39875;DHT22;25547;52.530;13.194;2022-11-12T05:33:31;6.80;99.90
39875;DHT22;25547;52.530;13.194;2022-11-12T05:35:59;6.80;99.90
39875;DHT22;25547;52.530;13.194;2022-11-12T05:38:24;6.80;99.90
39875;DHT22;25547;52.530;13.194;2022-11-12T05:40:50;6.80;99.90
39875;DHT22;25547;52.530;13.194;2022-11-12T05:43:15;6.70;99.90
39875;DHT22;25547;52.530;13.194;2022-11-12T05:45:41;6.80;99.90
39875;DHT22;25547;52.530;13.194;2022-11-12T05:48:07;6.80;99.90
39875;DHT22;25547;52.530;13.194;2022-11-12T05:50:35;6.80;99.90
39875;DHT22;25547;52.530;13.194;2022-11-12T05:53:01;6.70;99.90
39875;DHT22;25547;52.530;13.194;2022-11-12T05:55:26;6.70;99.90
39875;DHT22;25547;52.530;13.194;2022-11-12T05:57:52;6.60;99.90
39875;DHT22;25547;52.530;13.194;2022-11-12T06:00:17;6.50;99.90
39875;DHT22;25547;52.530;13.194;2022-11-12T06:02:43;6.50;99.90
39875;DHT22;25547;52.530;13.194;2022-11-12T06:05:08;6.50;99.90
39875;DHT22;25547;52.530;13.194;2022-11-12T06:07:34;6.40;99.90
39875;DHT22;25547;52.530;13.194;2022-11-12T06:09:59;6.50;99.90
39875;DHT22;25547;52.530;13.194;2022-11-12T06:12:27;6.60;99.90
39875;DHT22;25547;52.530;13.194;2022-11-12T06:14:53;6.60;99.90
39875;DHT22;25547;52.530;13.194;2022-11-12T06:17:18;6.60;99.90
39875;DHT22;25547;52.530;13.194;2022-11-12T06:19:47;6.60;99.90
39875;DHT22;25547;52.530;13.194;2022-11-12T06:22:12;6.30;99.90
39875;DHT22;25547;52.530;13.194;2022-11-12T06:24:38;6.20;99.90
39875;DHT22;25547;52.530;13.194;2022-11-12T06:27:03;6.40;99.90
39875;DHT22;25547;52.530;13.194;2022-11-12T06:29:29;6.50;99.90
39875;DHT22;25547;52.530;13.194;2022-11-12T06:31:56;6.30;99.90
39875;DHT22;25547;52.530;13.194;2022-11-12T06:34:22;6.10;99.90
39875;DHT22;25547;52.530;13.194;2022-11-12T06:36:47;6.20;99.90
39875;DHT22;25547;52.530;13.194;2022-11-12T06:39:13;6.10;99.90
39875;DHT22;25547;52.530;13.194;2022-11-12T06:41:41;6.10;99.90
39875;DHT22;25547;52.530;13.194;2022-11-12T06:44:09;5.90;99.90
39875;DHT22;25547;52.530;13.194;2022-11-12T06:46:36;6.10;99.90
39875;DHT22;25547;52.530;13.194;2022-11-12T06:49:04;6.20;99.90
39875;DHT22;25547;52.530;13.194;2022-11-12T06:51:30;6.20;99.90
39875;DHT22;25547;52.530;13.194;2022-11-12T06:53:55;6.40;99.90
39875;DHT22;25547;52.530;13.194;2022-11-12T06:56:21;6.20;99.90
39875;DHT22;25547;52.530;13.194;2022-11-12T06:58:46;6.20;99.90
39875;DHT22;25547;52.530;13.194;2022-11-12T07:01:13;6.10;99.90
39875;DHT22;25547;52.530;13.194;2022-11-12T07:03:42;6.40;99.90
39875;DHT22;25547;52.530;13.194;2022-11-12T07:06:09;6.50;99.90
39875;DHT22;25547;52.530;13.194;2022-11-12T07:08:37;6.60;99.90
39875;DHT22;25547;52.530;13.194;2022-11-12T07:11:04;6.80;99.90
39875;DHT22;25547;52.530;13.194;2022-11-12T07:13:31;6.80;99.90
39875;DHT22;25547;52.530;13.194;2022-11-12T07:15:58;6.90;99.90
39875;DHT22;25547;52.530;13.194;2022-11-12T07:18:24;6.90;99.90
39875;DHT22;25547;52.530;13.194;2022-11-12T07:20:49;7.10;99.90
39875;DHT22;25547;52.530;13.194;2022-11-12T07:23:17;7.30;99.90
39875;DHT22;25547;52.530;13.194;2022-11-12T07:25:43;7.30;99.90
39875;DHT22;25547;52.530;13.194;2022-11-12T07:28:11;7.10;99.90
39875;DHT22;25547;52.530;13.194;2022-11-12T07:30:36;7.20;99.90
39875;DHT22;25547;52.530;13.194;2022-11-12T07:33:05;7.40;99.90
39875;DHT22;25547;52.530;13.194;2022-11-12T07:35:33;7.40;99.90
39875;DHT22;25547;52.530;13.194;2022-11-12T07:38:01;7.50;99.90
39875;DHT22;25547;52.530;13.194;2022-11-12T07:40:26;7.60;99.90
39875;DHT22;25547;52.530;13.194;2022-11-12T07:42:52;7.60;99.90
39875;DHT22;25547;52.530;13.194;2022-11-12T07:45:17;7.80;99.90
39875;DHT22;25547;52.530;13.194;2022-11-12T07:47:43;7.90;99.90
39875;DHT22;25547;52.530;13.194;2022-11-12T07:50:08;8.00;99.90
39875;DHT22;25547;52.530;13.194;2022-11-12T07:52:34;8.00;99.90
39875;DHT22;25547;52.530;13.194;2022-11-12T07:54:59;8.00;99.90
39875;DHT22;25547;52.530;13.194;2022-11-12T07:57:25;7.90;99.90
39875;DHT22;25547;52.530;13.194;2022-11-12T07:59:50;7.90;99.90
39875;DHT22;25547;52.530;13.194;2022-11-12T08:02:16;7.90;99.90
39875;DHT22;25547;52.530;13.194;2022-11-12T08:04:44;8.00;99.90
39875;DHT22;25547;52.530;13.194;2022-11-12T08:07:09;8.10;99.90
39875;DHT22;25547;52.530;13.194;2022-11-12T08:09:37;8.20;99.90
39875;DHT22;25547;52.530;13.194;2022-11-12T08:12:03;8.20;99.90
39875;DHT22;25547;52.530;13.194;2022-11-12T08:14:31;8.30;99.90
39875;DHT22;25547;52.530;13.194;2022-11-12T08:16:56;8.30;99.90
39875;DHT22;25547;52.530;13.194;2022-11-12T08:19:22;8.40;99.90
39875;DHT22;25547;52.530;13.194;2022-11-12T08:21:47;8.40;99.90
39875;DHT22;25547;52.530;13.194;2022-11-12T08:24:13;8.40;99.90
39875;DHT22;25547;52.530;13.194;2022-11-12T08:26:38;8.50;99.90
39875;DHT22;25547;52.530;13.194;2022-11-12T08:29:04;8.50;99.90
39875;DHT22;25547;52.530;13.194;2022-11-12T08:31:32;8.60;99.90
39875;DHT22;25547;52.530;13.194;2022-11-12T08:33:57;8.50;99.90
39875;DHT22;25547;52.530;13.194;2022-11-12T08:36:23;8.50;99.90
39875;DHT22;25547;52.530;13.194;2022-11-12T08:38:51;8.50;99.90
39875;DHT22;25547;52.530;13.194;2022-11-12T08:41:16;8.50;99.90
39875;DHT22;25547;52.530;13.194;2022-11-12T08:43:42;8.60;99.90
39875;DHT22;25547;52.530;13.194;2022-11-12T08:46:07;8.60;99.90
39875;DHT22;25547;52.530;13.194;2022-11-12T08:48:33;8.80;99.90
39875;DHT22;25547;52.530;13.194;2022-11-12T08:51:00;8.80;99.90
39875;DHT22;25547;52.530;13.194;2022-11-12T08:53:26;8.90;99.90
39875;DHT22;25547;52.530;13.194;2022-11-12T08:55:53;8.90;99.90
39875;DHT22;25547;52.530;13.194;2022-11-12T08:58:19;8.90;99.90
39875;DHT22;25547;52.530;13.194;2022-11-12T09:00:47;9.00;99.90
39875;DHT22;25547;52.530;13.194;2022-11-12T09:03:15;9.10;99.90
39875;DHT22;25547;52.530;13.194;2022-11-12T09:05:41;9.10;99.90
39875;DHT22;25547;52.530;13.194;2022-11-12T09:08:07;9.20;99.90
39875;DHT22;25547;52.530;13.194;2022-11-12T09:10:34;9.20;99.90
39875;DHT22;25547;52.530;13.194;2022-11-12T09:12:59;9.30;99.90
39875;DHT22;25547;52.530;13.194;2022-11-12T09:15:25;9.30;99.90
39875;DHT22;25547;52.530;13.194;2022-11-12T09:17:59;9.30;99.90
39875;DHT22;25547;52.530;13.194;2022-11-12T09:20:26;9.40;99.90
39875;DHT22;25547;52.530;13.194;2022-11-12T09:22:52;9.50;99.90
39875;DHT22;25547;52.530;13.194;2022-11-12T09:25:18;9.50;99.90
39875;DHT22;25547;52.530;13.194;2022-11-12T09:27:44;9.60;99.90
39875;DHT22;25547;52.530;13.194;2022-11-12T09:30:10;9.70;99.90
39875;DHT22;25547;52.530;13.194;2022-11-12T09:32:35;9.80;99.90
39875;DHT22;25547;52.530;13.194;2022-11-12T09:35:03;9.90;99.90
39875;DHT22;25547;52.530;13.194;2022-11-12T09:37:29;9.90;99.90
39875;DHT22;25547;52.530;13.194;2022-11-12T09:39:55;10.10;99.90
39875;DHT22;25547;52.530;13.194;2022-11-12T09:42:23;10.10;99.90
39875;DHT22;25547;52.530;13.194;2022-11-12T09:44:59;10.20;99.90
39875;DHT22;25547;52.530;13.194;2022-11-12T09:47:33;10.30;99.90
39875;DHT22;25547;52.530;13.194;2022-11-12T09:50:04;10.40;99.90
39875;DHT22;25547;52.530;13.194;2022-11-12T09:52:37;10.50;99.90
39875;DHT22;25547;52.530;13.194;2022-11-12T09:57:34;10.70;99.90
39875;DHT22;25547;52.530;13.194;2022-11-12T10:00:00;10.80;99.90
39875;DHT22;25547;52.530;13.194;2022-11-12T10:02:31;10.80;99.90
39875;DHT22;25547;52.530;13.194;2022-11-12T10:10:17;11.00;99.90
39875;DHT22;25547;52.530;13.194;2022-11-12T10:21:00;11.20;99.90
39875;DHT22;25547;52.530;13.194;2022-11-12T10:24:02;11.30;99.90
39875;DHT22;25547;52.530;13.194;2022-11-12T10:26:22;11.30;99.90
39875;DHT22;25547;52.530;13.194;2022-11-12T10:31:32;11.50;99.90
39875;DHT22;25547;52.530;13.194;2022-11-12T10:37:00;11.50;99.90
39875;DHT22;25547;52.530;13.194;2022-11-12T10:39:32;11.70;99.90
39875;DHT22;25547;52.530;13.194;2022-11-12T10:42:08;11.60;99.90
39875;DHT22;25547;52.530;13.194;2022-11-12T10:44:35;11.70;99.90
39875;DHT22;25547;52.530;13.194;2022-11-12T10:49:58;11.70;99.90
39875;DHT22;25547;52.530;13.194;2022-11-12T10:52:26;11.80;99.90
39875;DHT22;25547;52.530;13.194;2022-11-12T10:55:02;11.80;99.90
39875;DHT22;25547;52.530;13.194;2022-11-12T10:57:28;11.90;99.90
39875;DHT22;25547;52.530;13.194;2022-11-12T11:00:13;11.90;99.90
39875;DHT22;25547;52.530;13.194;2022-11-12T11:07:55;12.10;99.90
39875;DHT22;25547;52.530;13.194;2022-11-12T11:10:32;12.10;99.90
39875;DHT22;25547;52.530;13.194;2022-11-12T11:15:59;12.00;99.90
39875;DHT22;25547;52.530;13.194;2022-11-12T11:18:25;12.00;99.90
39875;DHT22;25547;52.530;13.194;2022-11-12T11:20:55;12.00;99.90
39875;DHT22;25547;52.530;13.194;2022-11-12T11:23:23;12.10;99.90
39875;DHT22;25547;52.530;13.194;2022-11-12T11:25:52;12.10;99.90
39875;DHT22;25547;52.530;13.194;2022-11-12T11:30:52;11.90;99.90
39875;DHT22;25547;52.530;13.194;2022-11-12T11:33:23;11.90;99.90
39875;DHT22;25547;52.530;13.194;2022-11-12T11:35:58;12.00;99.90
39875;DHT22;25547;52.530;13.194;2022-11-12T11:41:14;11.90;99.90
39875;DHT22;25547;52.530;13.194;2022-11-12T11:44:24;11.90;99.90
39875;DHT22;25547;52.530;13.194;2022-11-12T11:51:46;11.80;99.90
39875;DHT22;25547;52.530;13.194;2022-11-12T11:56:41;11.70;99.90
39875;DHT22;25547;52.530;13.194;2022-11-12T12:07:03;11.80;99.90
39875;DHT22;25547;52.530;13.194;2022-11-12T12:15:08;11.80;99.90
39875;DHT22;25547;52.530;13.194;2022-11-12T12:17:46;11.80;99.90
39875;DHT22;25547;52.530;13.194;2022-11-12T12:20:34;11.80;99.90
39875;DHT22;25547;52.530;13.194;2022-11-12T12:25:47;11.80;99.90
39875;DHT22;25547;52.530;13.194;2022-11-12T12:30:49;11.90;99.90
39875;DHT22;25547;52.530;13.194;2022-11-12T12:33:29;11.90;99.90
39875;DHT22;25547;52.530;13.194;2022-11-12T12:35:58;11.90;99.90
39875;DHT22;25547;52.530;13.194;2022-11-12T12:38:37;12.00;99.90
39875;DHT22;25547;52.530;13.194;2022-11-12T12:41:08;12.00;99.90
39875;DHT22;25547;52.530;13.194;2022-11-12T12:43:48;12.00;99.90
39875;DHT22;25547;52.530;13.194;2022-11-12T12:46:19;12.00;99.90
39875;DHT22;25547;52.530;13.194;2022-11-12T12:48:47;12.00;99.90
39875;DHT22;25547;52.530;13.194;2022-11-12T12:51:16;12.00;99.90
39875;DHT22;25547;52.530;13.194;2022-11-12T12:53:42;11.90;99.90
39875;DHT22;25547;52.530;13.194;2022-11-12T13:08:43;11.90;99.90
39875;DHT22;25547;52.530;13.194;2022-11-12T13:11:09;12.00;99.90
39875;DHT22;25547;52.530;13.194;2022-11-12T13:13:35;11.90;99.90
39875;DHT22;25547;52.530;13.194;2022-11-12T13:16:02;12.00;99.90
39875;DHT22;25547;52.530;13.194;2022-11-12T13:19:10;12.10;99.90
39875;DHT22;25547;52.530;13.194;2022-11-12T13:21:17;12.00;99.90
39875;DHT22;25547;52.530;13.194;2022-11-12T13:31:43;12.10;99.90
39875;DHT22;25547;52.530;13.194;2022-11-12T13:34:16;12.00;99.90
39875;DHT22;25547;52.530;13.194;2022-11-12T13:36:52;11.90;99.90
39875;DHT22;25547;52.530;13.194;2022-11-12T13:39:19;11.90;99.90
39875;DHT22;25547;52.530;13.194;2022-11-12T13:41:53;11.90;99.90
39875;DHT22;25547;52.530;13.194;2022-11-12T13:44:45;11.90;99.90
39875;DHT22;25547;52.530;13.194;2022-11-12T13:47:16;11.90;99.90
39875;DHT22;25547;52.530;13.194;2022-11-12T13:49:43;11.90;99.90
39875;DHT22;25547;52.530;13.194;2022-11-12T13:52:11;11.90;99.90
39875;DHT22;25547;52.530;13.194;2022-11-12T13:54:38;12.00;99.90
39875;DHT22;25547;52.530;13.194;2022-11-12T13:59:47;12.00;99.90
39875;DHT22;25547;52.530;13.194;2022-11-12T14:02:22;11.90;99.90
39875;DHT22;25547;52.530;13.194;2022-11-12T14:04:49;11.90;99.90
39875;DHT22;25547;52.530;13.194;2022-11-12T14:07:30;11.90;99.90
39875;DHT22;25547;52.530;13.194;2022-11-12T14:15:46;11.90;99.90
39875;DHT22;25547;52.530;13.194;2022-11-12T14:18:16;12.00;99.90
39875;DHT22;25547;52.530;13.194;2022-11-12T14:20:44;11.90;99.90
39875;DHT22;25547;52.530;13.194;2022-11-12T14:23:19;11.80;99.90
39875;DHT22;25547;52.530;13.194;2022-11-12T14:25:52;11.80;99.90
39875;DHT22;25547;52.530;13.194;2022-11-12T14:30:49;11.70;99.90
39875;DHT22;25547;52.530;13.194;2022-11-12T14:33:17;11.80;99.90
39875;DHT22;25547;52.530;13.194;2022-11-12T14:35:43;11.80;99.90
39875;DHT22;25547;52.530;13.194;2022-11-12T14:40:53;11.70;99.90
39875;DHT22;25547;52.530;13.194;2022-11-12T14:45:57;11.60;99.90
39875;DHT22;25547;52.530;13.194;2022-11-12T14:48:23;11.60;99.90
39875;DHT22;25547;52.530;13.194;2022-11-12T14:50:54;11.60;99.90
39875;DHT22;25547;52.530;13.194;2022-11-12T14:53:21;11.50;99.90
39875;DHT22;25547;52.530;13.194;2022-11-12T14:55:51;11.60;99.90
39875;DHT22;25547;52.530;13.194;2022-11-12T14:58:17;11.50;99.90
39875;DHT22;25547;52.530;13.194;2022-11-12T15:00:44;11.50;99.90
39875;DHT22;25547;52.530;13.194;2022-11-12T15:03:29;11.40;99.90
39875;DHT22;25547;52.530;13.194;2022-11-12T15:06:15;11.40;99.90
39875;DHT22;25547;52.530;13.194;2022-11-12T15:08:43;11.30;99.90
39875;DHT22;25547;52.530;13.194;2022-11-12T15:11:25;11.30;99.90
39875;DHT22;25547;52.530;13.194;2022-11-12T15:13:53;11.20;99.90
39875;DHT22;25547;52.530;13.194;2022-11-12T15:16:27;11.20;99.90
39875;DHT22;25547;52.530;13.194;2022-11-12T15:19:00;11.10;99.90
39875;DHT22;25547;52.530;13.194;2022-11-12T15:21:26;11.10;99.90
39875;DHT22;25547;52.530;13.194;2022-11-12T15:23:59;11.10;99.90
39875;DHT22;25547;52.530;13.194;2022-11-12T15:26:32;11.00;99.90
39875;DHT22;25547;52.530;13.194;2022-11-12T15:29:22;11.00;99.90
39875;DHT22;25547;52.530;13.194;2022-11-12T15:31:48;11.00;99.90
39875;DHT22;25547;52.530;13.194;2022-11-12T15:34:19;11.00;99.90
39875;DHT22;25547;52.530;13.194;2022-11-12T15:36:48;10.90;99.90
39875;DHT22;25547;52.530;13.194;2022-11-12T15:39:16;10.90;99.90
39875;DHT22;25547;52.530;13.194;2022-11-12T15:41:44;10.90;99.90
39875;DHT22;25547;52.530;13.194;2022-11-12T15:44:10;10.80;99.90
39875;DHT22;25547;52.530;13.194;2022-11-12T15:46:36;10.80;99.90
39875;DHT22;25547;52.530;13.194;2022-11-12T15:49:02;10.80;99.90
39875;DHT22;25547;52.530;13.194;2022-11-12T15:51:27;10.80;99.90
39875;DHT22;25547;52.530;13.194;2022-11-12T15:53:55;10.80;99.90
39875;DHT22;25547;52.530;13.194;2022-11-12T15:56:21;10.70;99.90
39875;DHT22;25547;52.530;13.194;2022-11-12T15:58:49;10.70;99.90
39875;DHT22;25547;52.530;13.194;2022-11-12T16:01:14;10.70;99.90
39875;DHT22;25547;52.530;13.194;2022-11-12T16:03:40;10.60;99.90
39875;DHT22;25547;52.530;13.194;2022-11-12T16:06:08;10.60;99.90
39875;DHT22;25547;52.530;13.194;2022-11-12T16:08:34;10.60;99.90
39875;DHT22;25547;52.530;13.194;2022-11-12T16:10:59;10.60;99.90
39875;DHT22;25547;52.530;13.194;2022-11-12T16:13:26;10.50;99.90
39875;DHT22;25547;52.530;13.194;2022-11-12T16:15:52;10.50;99.90
39875;DHT22;25547;52.530;13.194;2022-11-12T16:18:20;10.40;99.90
39875;DHT22;25547;52.530;13.194;2022-11-12T16:20:46;10.40;99.90
39875;DHT22;25547;52.530;13.194;2022-11-12T16:23:12;10.40;99.90
39875;DHT22;25547;52.530;13.194;2022-11-12T16:25:39;10.40;99.90
39875;DHT22;25547;52.530;13.194;2022-11-12T16:28:07;10.40;99.90
39875;DHT22;25547;52.530;13.194;2022-11-12T16:30:34;10.30;99.90
39875;DHT22;25547;52.530;13.194;2022-11-12T16:33:02;10.20;99.90
39875;DHT22;25547;52.530;13.194;2022-11-12T16:35:28;10.10;99.90
39875;DHT22;25547;52.530;13.194;2022-11-12T16:37:56;10.10;99.90
39875;DHT22;25547;52.530;13.194;2022-11-12T16:40:25;10.20;99.90
39875;DHT22;25547;52.530;13.194;2022-11-12T16:42:51;10.20;99.90
39875;DHT22;25547;52.530;13.194;2022-11-12T16:45:18;10.10;99.90
39875;DHT22;25547;52.530;13.194;2022-11-12T16:47:47;10.10;99.90
39875;DHT22;25547;52.530;13.194;2022-11-12T16:50:15;10.20;99.90
39875;DHT22;25547;52.530;13.194;2022-11-12T16:52:41;10.20;99.90
39875;DHT22;25547;52.530;13.194;2022-11-12T16:55:07;10.10;99.90
39875;DHT22;25547;52.530;13.194;2022-11-12T16:57:32;10.00;99.90
39875;DHT22;25547;52.530;13.194;2022-11-12T16:59:58;9.90;99.90
39875;DHT22;25547;52.530;13.194;2022-11-12T17:02:24;9.90;99.90
39875;DHT22;25547;52.530;13.194;2022-11-12T17:04:49;9.80;99.90
39875;DHT22;25547;52.530;13.194;2022-11-12T17:07:15;9.80;99.90
39875;DHT22;25547;52.530;13.194;2022-11-12T17:09:42;9.90;99.90
39875;DHT22;25547;52.530;13.194;2022-11-12T17:12:10;9.80;99.90
39875;DHT22;25547;52.530;13.194;2022-11-12T17:14:36;9.80;99.90
39875;DHT22;25547;52.530;13.194;2022-11-12T17:17:01;9.80;99.90
39875;DHT22;25547;52.530;13.194;2022-11-12T17:19:29;9.80;99.90